sensor_id;sensor_type;location;lat;lon;timestamp;P1;durP1;ratioP1;P2;durP2;ratioP2
7253;SDS011;4060;49.186;9.226;2022-09-29T00:00:26;3.28;;;2.97;;
7253;SDS011;4060;49.186;9.226;2022-09-29T00:02:57;3.20;;;2.90;;
7253;SDS011;4060;49.186;9.226;2022-09-29T00:05:26;3.80;;;3.50;;
7253;SDS011;4060;49.186;9.226;2022-09-29T00:07:56;4.07;;;3.00;;
7253;SDS011;4060;49.186;9.226;2022-09-29T00:10:26;3.55;;;3.25;;
7253;SDS011;4060;49.186;9.226;2022-09-29T00:12:59;4.55;;;3.10;;
7253;SDS011;4060;49.186;9.226;2022-09-29T00:15:28;3.53;;;3.22;;
7253;SDS011;4060;49.186;9.226;2022-09-29T00:17:58;5.50;;;3.17;;
7253;SDS011;4060;49.186;9.226;2022-09-29T00:20:27;3.95;;;2.95;;
7253;SDS011;4060;49.186;9.226;2022-09-29T00:22:57;4.20;;;3.28;;
7253;SDS011;4060;49.186;9.226;2022-09-29T00:25:27;3.50;;;3.10;;
7253;SDS011;4060;49.186;9.226;2022-09-29T00:28:00;4.55;;;2.92;;
7253;SDS011;4060;49.186;9.226;2022-09-29T00:30:29;4.57;;;2.85;;
7253;SDS011;4060;49.186;9.226;2022-09-29T00:32:58;3.30;;;3.03;;
7253;SDS011;4060;49.186;9.226;2022-09-29T00:35:28;3.50;;;3.20;;
7253;SDS011;4060;49.186;9.226;2022-09-29T00:37:57;4.53;;;3.22;;
7253;SDS011;4060;49.186;9.226;2022-09-29T00:40:27;4.50;;;2.90;;
7253;SDS011;4060;49.186;9.226;2022-09-29T00:42:56;2.92;;;2.63;;
7253;SDS011;4060;49.186;9.226;2022-09-29T00:45:28;3.38;;;3.08;;
7253;SDS011;4060;49.186;9.226;2022-09-29T00:48:00;4.05;;;3.28;;
7253;SDS011;4060;49.186;9.226;2022-09-29T00:50:39;2.67;;;2.10;;
7253;SDS011;4060;49.186;9.226;2022-09-29T00:53:12;3.60;;;2.80;;
7253;SDS011;4060;49.186;9.226;2022-09-29T00:55:44;2.97;;;2.72;;
7253;SDS011;4060;49.186;9.226;2022-09-29T00:58:21;2.90;;;2.60;;
7253;SDS011;4060;49.186;9.226;2022-09-29T01:00:57;3.08;;;2.75;;
7253;SDS011;4060;49.186;9.226;2022-09-29T01:03:27;3.25;;;2.80;;
7253;SDS011;4060;49.186;9.226;2022-09-29T01:06:00;3.00;;;2.80;;
7253;SDS011;4060;49.186;9.226;2022-09-29T01:08:36;3.65;;;2.67;;
7253;SDS011;4060;49.186;9.226;2022-09-29T01:11:10;2.72;;;2.42;;
7253;SDS011;4060;49.186;9.226;2022-09-29T01:13:42;2.55;;;2.35;;
7253;SDS011;4060;49.186;9.226;2022-09-29T01:16:13;2.58;;;2.38;;
7253;SDS011;4060;49.186;9.226;2022-09-29T01:18:44;2.83;;;2.63;;
7253;SDS011;4060;49.186;9.226;2022-09-29T01:21:16;3.97;;;2.70;;
7253;SDS011;4060;49.186;9.226;2022-09-29T01:24:09;3.58;;;3.10;;
7253;SDS011;4060;49.186;9.226;2022-09-29T01:27:13;3.95;;;2.78;;
7253;SDS011;4060;49.186;9.226;2022-09-29T01:30:01;3.72;;;3.22;;
7253;SDS011;4060;49.186;9.226;2022-09-29T01:32:41;3.58;;;3.08;;
7253;SDS011;4060;49.186;9.226;2022-09-29T01:35:26;3.10;;;2.90;;
7253;SDS011;4060;49.186;9.226;2022-09-29T01:38:03;4.03;;;3.28;;
7253;SDS011;4060;49.186;9.226;2022-09-29T01:40:43;4.40;;;3.08;;
7253;SDS011;4060;49.186;9.226;2022-09-29T01:43:20;3.33;;;2.85;;
7253;SDS011;4060;49.186;9.226;2022-09-29T01:45:57;3.97;;;2.92;;
7253;SDS011;4060;49.186;9.226;2022-09-29T01:48:32;3.65;;;2.88;;
7253;SDS011;4060;49.186;9.226;2022-09-29T01:51:07;3.10;;;2.75;;
7253;SDS011;4060;49.186;9.226;2022-09-29T01:53:41;4.07;;;3.10;;
7253;SDS011;4060;49.186;9.226;2022-09-29T01:56:18;2.90;;;2.45;;
7253;SDS011;4060;49.186;9.226;2022-09-29T01:58:56;4.00;;;2.85;;
7253;SDS011;4060;49.186;9.226;2022-09-29T02:01:30;3.38;;;2.75;;
7253;SDS011;4060;49.186;9.226;2022-09-29T02:04:10;3.22;;;2.88;;
7253;SDS011;4060;49.186;9.226;2022-09-29T02:06:44;3.83;;;3.15;;
7253;SDS011;4060;49.186;9.226;2022-09-29T02:09:22;3.28;;;2.97;;
7253;SDS011;4060;49.186;9.226;2022-09-29T02:11:56;3.30;;;2.85;;
7253;SDS011;4060;49.186;9.226;2022-09-29T02:14:29;4.60;;;2.70;;
7253;SDS011;4060;49.186;9.226;2022-09-29T02:17:07;4.43;;;2.92;;
7253;SDS011;4060;49.186;9.226;2022-09-29T02:19:48;2.80;;;2.60;;
7253;SDS011;4060;49.186;9.226;2022-09-29T02:22:19;2.58;;;2.38;;
7253;SDS011;4060;49.186;9.226;2022-09-29T02:24:49;2.40;;;2.20;;
7253;SDS011;4060;49.186;9.226;2022-09-29T02:27:22;2.55;;;2.35;;
7253;SDS011;4060;49.186;9.226;2022-09-29T02:29:53;2.92;;;2.63;;
7253;SDS011;4060;49.186;9.226;2022-09-29T02:32:23;2.65;;;2.45;;
7253;SDS011;4060;49.186;9.226;2022-09-29T02:34:55;2.45;;;2.25;;
7253;SDS011;4060;49.186;9.226;2022-09-29T02:37:32;2.47;;;2.28;;
7253;SDS011;4060;49.186;9.226;2022-09-29T02:40:10;2.53;;;2.25;;
7253;SDS011;4060;49.186;9.226;2022-09-29T02:43:01;2.88;;;2.40;;
7253;SDS011;4060;49.186;9.226;2022-09-29T02:45:43;3.33;;;2.30;;
7253;SDS011;4060;49.186;9.226;2022-09-29T02:48:35;2.83;;;2.60;;
7253;SDS011;4060;49.186;9.226;2022-09-29T02:51:25;2.60;;;2.40;;
7253;SDS011;4060;49.186;9.226;2022-09-29T02:54:03;2.65;;;2.25;;
7253;SDS011;4060;49.186;9.226;2022-09-29T02:56:46;2.55;;;2.35;;
7253;SDS011;4060;49.186;9.226;2022-09-29T02:59:23;3.38;;;2.22;;
7253;SDS011;4060;49.186;9.226;2022-09-29T03:01:58;2.65;;;2.42;;
7253;SDS011;4060;49.186;9.226;2022-09-29T03:04:28;2.85;;;2.40;;
7253;SDS011;4060;49.186;9.226;2022-09-29T03:07:00;3.72;;;2.30;;
7253;SDS011;4060;49.186;9.226;2022-09-29T03:09:29;2.80;;;2.58;;
7253;SDS011;4060;49.186;9.226;2022-09-29T03:11:59;3.85;;;2.80;;
7253;SDS011;4060;49.186;9.226;2022-09-29T03:14:29;2.90;;;2.50;;
7253;SDS011;4060;49.186;9.226;2022-09-29T03:16:59;2.42;;;2.22;;
7253;SDS011;4060;49.186;9.226;2022-09-29T03:19:29;2.40;;;2.20;;
7253;SDS011;4060;49.186;9.226;2022-09-29T03:22:01;2.67;;;2.35;;
7253;SDS011;4060;49.186;9.226;2022-09-29T03:24:30;2.67;;;2.28;;
7253;SDS011;4060;49.186;9.226;2022-09-29T03:27:01;2.63;;;1.92;;
7253;SDS011;4060;49.186;9.226;2022-09-29T03:29:31;4.18;;;2.50;;
7253;SDS011;4060;49.186;9.226;2022-09-29T03:32:01;3.75;;;2.40;;
7253;SDS011;4060;49.186;9.226;2022-09-29T03:34:31;4.80;;;2.50;;
7253;SDS011;4060;49.186;9.226;2022-09-29T03:37:02;3.72;;;2.35;;
7253;SDS011;4060;49.186;9.226;2022-09-29T03:39:32;2.38;;;2.10;;
7253;SDS011;4060;49.186;9.226;2022-09-29T03:42:02;3.53;;;2.03;;
7253;SDS011;4060;49.186;9.226;2022-09-29T03:44:32;2.97;;;2.20;;
7253;SDS011;4060;49.186;9.226;2022-09-29T03:47:02;2.75;;;2.20;;
7253;SDS011;4060;49.186;9.226;2022-09-29T03:49:32;2.40;;;2.20;;
7253;SDS011;4060;49.186;9.226;2022-09-29T03:52:04;2.85;;;2.45;;
7253;SDS011;4060;49.186;9.226;2022-09-29T03:54:33;2.50;;;2.30;;
7253;SDS011;4060;49.186;9.226;2022-09-29T03:57:03;2.72;;;2.15;;
7253;SDS011;4060;49.186;9.226;2022-09-29T03:59:33;2.72;;;2.20;;
7253;SDS011;4060;49.186;9.226;2022-09-29T04:02:02;3.45;;;2.13;;
7253;SDS011;4060;49.186;9.226;2022-09-29T04:04:32;2.35;;;2.15;;
7253;SDS011;4060;49.186;9.226;2022-09-29T04:07:02;2.58;;;2.28;;
7253;SDS011;4060;49.186;9.226;2022-09-29T04:09:33;2.58;;;2.38;;
7253;SDS011;4060;49.186;9.226;2022-09-29T04:12:02;4.03;;;2.78;;
7253;SDS011;4060;49.186;9.226;2022-09-29T04:14:32;2.25;;;2.05;;
7253;SDS011;4060;49.186;9.226;2022-09-29T04:17:01;2.38;;;2.17;;
7253;SDS011;4060;49.186;9.226;2022-09-29T04:19:31;2.30;;;2.10;;
7253;SDS011;4060;49.186;9.226;2022-09-29T04:22:01;2.97;;;2.63;;
7253;SDS011;4060;49.186;9.226;2022-09-29T04:24:33;2.75;;;2.53;;
7253;SDS011;4060;49.186;9.226;2022-09-29T04:27:03;3.45;;;2.63;;
7253;SDS011;4060;49.186;9.226;2022-09-29T04:29:33;2.97;;;2.67;;
7253;SDS011;4060;49.186;9.226;2022-09-29T04:32:03;4.10;;;2.35;;
7253;SDS011;4060;49.186;9.226;2022-09-29T04:34:33;2.65;;;2.40;;
7253;SDS011;4060;49.186;9.226;2022-09-29T04:37:06;3.08;;;2.53;;
7253;SDS011;4060;49.186;9.226;2022-09-29T04:39:37;2.60;;;2.40;;
7253;SDS011;4060;49.186;9.226;2022-09-29T04:42:07;2.33;;;2.13;;
7253;SDS011;4060;49.186;9.226;2022-09-29T04:44:37;2.60;;;2.40;;
7253;SDS011;4060;49.186;9.226;2022-09-29T04:47:07;2.40;;;2.20;;
7253;SDS011;4060;49.186;9.226;2022-09-29T04:49:38;2.25;;;1.80;;
7253;SDS011;4060;49.186;9.226;2022-09-29T04:52:11;2.60;;;2.40;;
7253;SDS011;4060;49.186;9.226;2022-09-29T04:54:40;2.10;;;1.90;;
7253;SDS011;4060;49.186;9.226;2022-09-29T04:57:10;2.67;;;2.30;;
7253;SDS011;4060;49.186;9.226;2022-09-29T04:59:40;2.67;;;2.20;;
7253;SDS011;4060;49.186;9.226;2022-09-29T05:02:10;2.35;;;2.10;;
7253;SDS011;4060;49.186;9.226;2022-09-29T05:04:39;3.20;;;2.22;;
7253;SDS011;4060;49.186;9.226;2022-09-29T05:07:16;2.00;;;1.80;;
7253;SDS011;4060;49.186;9.226;2022-09-29T05:09:46;2.25;;;2.05;;
7253;SDS011;4060;49.186;9.226;2022-09-29T05:12:16;2.13;;;1.92;;
7253;SDS011;4060;49.186;9.226;2022-09-29T05:14:46;2.47;;;2.00;;
7253;SDS011;4060;49.186;9.226;2022-09-29T05:17:15;2.22;;;2.00;;
7253;SDS011;4060;49.186;9.226;2022-09-29T05:19:45;2.67;;;1.77;;
7253;SDS011;4060;49.186;9.226;2022-09-29T05:22:17;2.50;;;2.30;;
7253;SDS011;4060;49.186;9.226;2022-09-29T05:24:49;2.63;;;2.30;;
7253;SDS011;4060;49.186;9.226;2022-09-29T05:27:19;2.70;;;2.15;;
7253;SDS011;4060;49.186;9.226;2022-09-29T05:29:49;3.00;;;2.70;;
7253;SDS011;4060;49.186;9.226;2022-09-29T05:32:19;3.67;;;2.75;;
7253;SDS011;4060;49.186;9.226;2022-09-29T05:34:48;3.25;;;2.95;;
7253;SDS011;4060;49.186;9.226;2022-09-29T05:37:20;3.40;;;2.65;;
7253;SDS011;4060;49.186;9.226;2022-09-29T05:39:50;3.30;;;2.90;;
7253;SDS011;4060;49.186;9.226;2022-09-29T05:42:19;4.22;;;3.20;;
7253;SDS011;4060;49.186;9.226;2022-09-29T05:44:49;4.35;;;3.53;;
7253;SDS011;4060;49.186;9.226;2022-09-29T05:47:19;3.38;;;2.88;;
7253;SDS011;4060;49.186;9.226;2022-09-29T05:49:49;4.13;;;2.97;;
7253;SDS011;4060;49.186;9.226;2022-09-29T05:52:21;3.67;;;2.97;;
7253;SDS011;4060;49.186;9.226;2022-09-29T05:54:50;3.42;;;3.13;;
7253;SDS011;4060;49.186;9.226;2022-09-29T05:57:19;3.47;;;3.03;;
7253;SDS011;4060;49.186;9.226;2022-09-29T05:59:48;3.05;;;2.75;;
7253;SDS011;4060;49.186;9.226;2022-09-29T06:02:17;3.20;;;2.90;;
7253;SDS011;4060;49.186;9.226;2022-09-29T06:04:47;3.00;;;2.80;;
7253;SDS011;4060;49.186;9.226;2022-09-29T06:07:16;3.08;;;2.78;;
7253;SDS011;4060;49.186;9.226;2022-09-29T06:09:47;3.00;;;2.65;;
7253;SDS011;4060;49.186;9.226;2022-09-29T06:12:17;3.08;;;2.80;;
7253;SDS011;4060;49.186;9.226;2022-09-29T06:14:47;3.50;;;2.78;;
7253;SDS011;4060;49.186;9.226;2022-09-29T06:17:16;2.97;;;2.70;;
7253;SDS011;4060;49.186;9.226;2022-09-29T06:19:46;3.30;;;2.97;;
7253;SDS011;4060;49.186;9.226;2022-09-29T06:22:15;3.45;;;3.10;;
7253;SDS011;4060;49.186;9.226;2022-09-29T06:24:44;4.72;;;2.85;;
7253;SDS011;4060;49.186;9.226;2022-09-29T06:27:16;3.10;;;2.75;;
7253;SDS011;4060;49.186;9.226;2022-09-29T06:29:45;4.38;;;2.85;;
7253;SDS011;4060;49.186;9.226;2022-09-29T06:32:15;3.85;;;2.90;;
7253;SDS011;4060;49.186;9.226;2022-09-29T06:34:44;3.33;;;3.03;;
7253;SDS011;4060;49.186;9.226;2022-09-29T06:37:31;3.38;;;3.13;;
7253;SDS011;4060;49.186;9.226;2022-09-29T06:40:06;4.28;;;3.45;;
7253;SDS011;4060;49.186;9.226;2022-09-29T06:42:37;3.58;;;3.25;;
7253;SDS011;4060;49.186;9.226;2022-09-29T06:45:08;2.92;;;2.70;;
7253;SDS011;4060;49.186;9.226;2022-09-29T06:47:38;3.00;;;2.78;;
7253;SDS011;4060;49.186;9.226;2022-09-29T06:50:08;3.30;;;3.00;;
7253;SDS011;4060;49.186;9.226;2022-09-29T06:52:38;3.42;;;2.78;;
7253;SDS011;4060;49.186;9.226;2022-09-29T06:55:09;3.17;;;2.85;;
7253;SDS011;4060;49.186;9.226;2022-09-29T06:57:39;3.50;;;3.20;;
7253;SDS011;4060;49.186;9.226;2022-09-29T07:00:11;3.10;;;2.90;;
7253;SDS011;4060;49.186;9.226;2022-09-29T07:02:44;4.00;;;3.25;;
7253;SDS011;4060;49.186;9.226;2022-09-29T07:05:14;3.17;;;2.80;;
7253;SDS011;4060;49.186;9.226;2022-09-29T07:07:43;3.47;;;3.17;;
7253;SDS011;4060;49.186;9.226;2022-09-29T07:10:18;4.07;;;3.35;;
7253;SDS011;4060;49.186;9.226;2022-09-29T07:12:48;4.53;;;3.00;;
7253;SDS011;4060;49.186;9.226;2022-09-29T07:15:17;3.03;;;2.75;;
7253;SDS011;4060;49.186;9.226;2022-09-29T07:17:50;2.78;;;2.58;;
7253;SDS011;4060;49.186;9.226;2022-09-29T07:20:20;2.92;;;2.72;;
7253;SDS011;4060;49.186;9.226;2022-09-29T07:22:50;3.10;;;2.80;;
7253;SDS011;4060;49.186;9.226;2022-09-29T07:25:21;3.15;;;2.95;;
7253;SDS011;4060;49.186;9.226;2022-09-29T07:27:51;3.25;;;2.72;;
7253;SDS011;4060;49.186;9.226;2022-09-29T07:30:21;3.05;;;2.75;;
7253;SDS011;4060;49.186;9.226;2022-09-29T07:32:51;3.13;;;2.50;;
7253;SDS011;4060;49.186;9.226;2022-09-29T07:35:23;3.13;;;2.80;;
7253;SDS011;4060;49.186;9.226;2022-09-29T07:37:53;3.15;;;2.85;;
7253;SDS011;4060;49.186;9.226;2022-09-29T07:40:24;3.13;;;2.70;;
7253;SDS011;4060;49.186;9.226;2022-09-29T07:42:56;2.70;;;2.50;;
7253;SDS011;4060;49.186;9.226;2022-09-29T07:45:29;3.60;;;2.88;;
7253;SDS011;4060;49.186;9.226;2022-09-29T07:47:59;4.68;;;2.80;;
7253;SDS011;4060;49.186;9.226;2022-09-29T07:50:29;3.42;;;2.70;;
7253;SDS011;4060;49.186;9.226;2022-09-29T07:52:58;2.80;;;2.60;;
7253;SDS011;4060;49.186;9.226;2022-09-29T07:55:29;3.28;;;2.95;;
7253;SDS011;4060;49.186;9.226;2022-09-29T07:57:59;3.78;;;3.47;;
7253;SDS011;4060;49.186;9.226;2022-09-29T08:00:29;3.33;;;3.03;;
7253;SDS011;4060;49.186;9.226;2022-09-29T08:03:00;5.35;;;3.55;;
7253;SDS011;4060;49.186;9.226;2022-09-29T08:05:32;3.58;;;3.08;;
7253;SDS011;4060;49.186;9.226;2022-09-29T08:08:02;4.60;;;3.40;;
7253;SDS011;4060;49.186;9.226;2022-09-29T08:10:34;4.03;;;3.58;;
7253;SDS011;4060;49.186;9.226;2022-09-29T08:13:04;3.45;;;3.03;;
7253;SDS011;4060;49.186;9.226;2022-09-29T08:15:33;3.05;;;2.78;;
7253;SDS011;4060;49.186;9.226;2022-09-29T08:18:03;3.63;;;3.05;;
7253;SDS011;4060;49.186;9.226;2022-09-29T08:20:34;3.65;;;3.10;;
7253;SDS011;4060;49.186;9.226;2022-09-29T08:23:03;2.95;;;2.75;;
7253;SDS011;4060;49.186;9.226;2022-09-29T08:25:34;4.28;;;2.97;;
7253;SDS011;4060;49.186;9.226;2022-09-29T08:28:04;4.50;;;2.85;;
7253;SDS011;4060;49.186;9.226;2022-09-29T08:30:36;3.33;;;3.05;;
7253;SDS011;4060;49.186;9.226;2022-09-29T08:33:05;3.17;;;2.72;;
7253;SDS011;4060;49.186;9.226;2022-09-29T08:35:40;3.25;;;2.95;;
7253;SDS011;4060;49.186;9.226;2022-09-29T08:38:10;3.45;;;3.05;;
7253;SDS011;4060;49.186;9.226;2022-09-29T08:40:41;3.63;;;2.97;;
7253;SDS011;4060;49.186;9.226;2022-09-29T08:43:10;5.18;;;3.75;;
7253;SDS011;4060;49.186;9.226;2022-09-29T08:45:46;4.50;;;3.03;;
7253;SDS011;4060;49.186;9.226;2022-09-29T08:48:23;3.45;;;2.80;;
7253;SDS011;4060;49.186;9.226;2022-09-29T08:50:57;2.90;;;2.67;;
7253;SDS011;4060;49.186;9.226;2022-09-29T08:53:27;3.30;;;2.95;;
7253;SDS011;4060;49.186;9.226;2022-09-29T08:55:59;3.50;;;3.20;;
7253;SDS011;4060;49.186;9.226;2022-09-29T08:58:31;3.15;;;2.85;;
7253;SDS011;4060;49.186;9.226;2022-09-29T09:01:05;2.85;;;2.65;;
7253;SDS011;4060;49.186;9.226;2022-09-29T09:04:04;3.40;;;3.10;;
7253;SDS011;4060;49.186;9.226;2022-09-29T09:06:59;3.15;;;2.85;;
7253;SDS011;4060;49.186;9.226;2022-09-29T09:09:40;3.30;;;3.00;;
7253;SDS011;4060;49.186;9.226;2022-09-29T09:15:46;3.03;;;2.70;;
7253;SDS011;4060;49.186;9.226;2022-09-29T09:18:30;2.65;;;2.40;;
7253;SDS011;4060;49.186;9.226;2022-09-29T09:21:13;2.72;;;2.50;;
7253;SDS011;4060;49.186;9.226;2022-09-29T09:23:54;3.20;;;2.90;;
7253;SDS011;4060;49.186;9.226;2022-09-29T09:26:27;3.58;;;3.00;;
7253;SDS011;4060;49.186;9.226;2022-09-29T09:29:04;3.03;;;2.83;;
7253;SDS011;4060;49.186;9.226;2022-09-29T09:31:42;3.50;;;2.70;;
7253;SDS011;4060;49.186;9.226;2022-09-29T09:34:17;3.25;;;2.92;;
7253;SDS011;4060;49.186;9.226;2022-09-29T09:36:49;5.30;;;3.38;;
7253;SDS011;4060;49.186;9.226;2022-09-29T09:39:26;4.63;;;3.63;;
7253;SDS011;4060;49.186;9.226;2022-09-29T09:42:03;4.20;;;3.42;;
7253;SDS011;4060;49.186;9.226;2022-09-29T09:44:44;4.88;;;3.15;;
7253;SDS011;4060;49.186;9.226;2022-09-29T09:47:21;4.75;;;3.40;;
7253;SDS011;4060;49.186;9.226;2022-09-29T09:49:55;4.68;;;3.15;;
7253;SDS011;4060;49.186;9.226;2022-09-29T09:52:30;3.22;;;2.92;;
7253;SDS011;4060;49.186;9.226;2022-09-29T09:55:08;3.78;;;3.17;;
7253;SDS011;4060;49.186;9.226;2022-09-29T09:57:46;5.50;;;3.10;;
7253;SDS011;4060;49.186;9.226;2022-09-29T10:00:29;5.32;;;2.83;;
7253;SDS011;4060;49.186;9.226;2022-09-29T10:03:03;4.18;;;3.10;;
7253;SDS011;4060;49.186;9.226;2022-09-29T10:05:35;3.17;;;2.65;;
7253;SDS011;4060;49.186;9.226;2022-09-29T10:08:09;2.47;;;2.28;;
7253;SDS011;4060;49.186;9.226;2022-09-29T10:10:43;2.70;;;2.50;;
7253;SDS011;4060;49.186;9.226;2022-09-29T10:13:12;3.30;;;2.78;;
7253;SDS011;4060;49.186;9.226;2022-09-29T10:15:46;3.05;;;2.75;;
7253;SDS011;4060;49.186;9.226;2022-09-29T10:18:21;3.67;;;2.78;;
7253;SDS011;4060;49.186;9.226;2022-09-29T10:20:57;3.00;;;2.60;;
7253;SDS011;4060;49.186;9.226;2022-09-29T10:23:27;3.70;;;3.00;;
7253;SDS011;4060;49.186;9.226;2022-09-29T10:25:59;3.90;;;2.90;;
7253;SDS011;4060;49.186;9.226;2022-09-29T10:28:42;3.67;;;2.60;;
7253;SDS011;4060;49.186;9.226;2022-09-29T10:31:18;4.05;;;2.53;;
7253;SDS011;4060;49.186;9.226;2022-09-29T10:33:51;3.20;;;2.78;;
7253;SDS011;4060;49.186;9.226;2022-09-29T10:36:24;2.78;;;2.58;;
7253;SDS011;4060;49.186;9.226;2022-09-29T10:38:56;4.93;;;2.67;;
7253;SDS011;4060;49.186;9.226;2022-09-29T10:41:27;2.85;;;2.63;;
7253;SDS011;4060;49.186;9.226;2022-09-29T10:43:57;3.45;;;2.70;;
7253;SDS011;4060;49.186;9.226;2022-09-29T10:46:50;3.40;;;2.70;;
7253;SDS011;4060;49.186;9.226;2022-09-29T10:49:22;3.60;;;2.63;;
7253;SDS011;4060;49.186;9.226;2022-09-29T10:51:58;3.80;;;2.80;;
7253;SDS011;4060;49.186;9.226;2022-09-29T10:54:30;3.28;;;2.50;;
7253;SDS011;4060;49.186;9.226;2022-09-29T10:57:11;3.97;;;2.72;;
7253;SDS011;4060;49.186;9.226;2022-09-29T10:59:45;3.83;;;2.25;;
7253;SDS011;4060;49.186;9.226;2022-09-29T11:02:20;4.13;;;2.90;;
7253;SDS011;4060;49.186;9.226;2022-09-29T11:04:52;3.90;;;2.25;;
7253;SDS011;4060;49.186;9.226;2022-09-29T11:07:24;2.90;;;2.60;;
7253;SDS011;4060;49.186;9.226;2022-09-29T11:09:55;3.47;;;2.90;;
7253;SDS011;4060;49.186;9.226;2022-09-29T11:12:25;3.00;;;2.70;;
7253;SDS011;4060;49.186;9.226;2022-09-29T11:15:00;3.08;;;2.72;;
7253;SDS011;4060;49.186;9.226;2022-09-29T11:17:51;2.75;;;2.50;;
7253;SDS011;4060;49.186;9.226;2022-09-29T11:20:21;3.88;;;2.88;;
7253;SDS011;4060;49.186;9.226;2022-09-29T11:26:07;3.58;;;2.85;;
7253;SDS011;4060;49.186;9.226;2022-09-29T11:28:59;3.13;;;2.70;;
7253;SDS011;4060;49.186;9.226;2022-09-29T11:31:45;3.17;;;2.17;;
7253;SDS011;4060;49.186;9.226;2022-09-29T11:34:33;4.13;;;2.70;;
7253;SDS011;4060;49.186;9.226;2022-09-29T11:37:13;3.45;;;2.60;;
7253;SDS011;4060;49.186;9.226;2022-09-29T11:39:51;2.75;;;2.55;;
7253;SDS011;4060;49.186;9.226;2022-09-29T11:42:33;4.88;;;2.72;;
7253;SDS011;4060;49.186;9.226;2022-09-29T11:45:24;3.90;;;2.72;;
7253;SDS011;4060;49.186;9.226;2022-09-29T11:48:18;2.50;;;2.28;;
7253;SDS011;4060;49.186;9.226;2022-09-29T11:51:08;3.05;;;2.72;;
7253;SDS011;4060;49.186;9.226;2022-09-29T11:53:58;3.25;;;2.50;;
7253;SDS011;4060;49.186;9.226;2022-09-29T11:56:51;3.67;;;2.95;;
7253;SDS011;4060;49.186;9.226;2022-09-29T12:05:20;2.83;;;2.28;;
7253;SDS011;4060;49.186;9.226;2022-09-29T12:08:01;3.92;;;2.92;;
7253;SDS011;4060;49.186;9.226;2022-09-29T12:10:47;5.30;;;2.80;;
7253;SDS011;4060;49.186;9.226;2022-09-29T12:13:23;2.85;;;2.60;;
7253;SDS011;4060;49.186;9.226;2022-09-29T12:15:59;3.03;;;2.60;;
7253;SDS011;4060;49.186;9.226;2022-09-29T12:18:35;4.68;;;2.95;;
7253;SDS011;4060;49.186;9.226;2022-09-29T12:21:07;4.03;;;3.10;;
7253;SDS011;4060;49.186;9.226;2022-09-29T12:23:41;4.90;;;2.60;;
7253;SDS011;4060;49.186;9.226;2022-09-29T12:26:14;4.05;;;2.53;;
7253;SDS011;4060;49.186;9.226;2022-09-29T12:28:47;3.80;;;2.60;;
7253;SDS011;4060;49.186;9.226;2022-09-29T12:31:20;3.50;;;2.60;;
7253;SDS011;4060;49.186;9.226;2022-09-29T12:33:53;2.55;;;2.35;;
7253;SDS011;4060;49.186;9.226;2022-09-29T12:36:37;4.28;;;2.45;;
7253;SDS011;4060;49.186;9.226;2022-09-29T12:39:20;4.70;;;2.55;;
7253;SDS011;4060;49.186;9.226;2022-09-29T12:42:02;3.00;;;2.40;;
7253;SDS011;4060;49.186;9.226;2022-09-29T12:44:50;3.03;;;2.47;;
7253;SDS011;4060;49.186;9.226;2022-09-29T12:47:27;2.70;;;2.50;;
7253;SDS011;4060;49.186;9.226;2022-09-29T12:50:09;3.03;;;2.70;;
7253;SDS011;4060;49.186;9.226;2022-09-29T12:52:47;2.50;;;2.30;;
7253;SDS011;4060;49.186;9.226;2022-09-29T12:55:27;3.28;;;2.55;;
7253;SDS011;4060;49.186;9.226;2022-09-29T12:58:03;3.25;;;2.65;;
7253;SDS011;4060;49.186;9.226;2022-09-29T13:00:39;4.60;;;2.40;;
7253;SDS011;4060;49.186;9.226;2022-09-29T13:03:25;4.53;;;2.95;;
7253;SDS011;4060;49.186;9.226;2022-09-29T13:06:38;4.20;;;2.70;;
7253;SDS011;4060;49.186;9.226;2022-09-29T13:12:25;3.10;;;2.53;;
7253;SDS011;4060;49.186;9.226;2022-09-29T13:15:23;2.85;;;2.30;;
7253;SDS011;4060;49.186;9.226;2022-09-29T13:18:18;2.80;;;2.35;;
7253;SDS011;4060;49.186;9.226;2022-09-29T13:21:13;3.88;;;2.47;;
7253;SDS011;4060;49.186;9.226;2022-09-29T13:23:57;3.38;;;2.67;;
7253;SDS011;4060;49.186;9.226;2022-09-29T13:29:49;2.58;;;2.38;;
7253;SDS011;4060;49.186;9.226;2022-09-29T13:32:23;2.58;;;2.35;;
7253;SDS011;4060;49.186;9.226;2022-09-29T13:34:54;4.40;;;2.50;;
7253;SDS011;4060;49.186;9.226;2022-09-29T13:37:27;3.03;;;2.50;;
7253;SDS011;4060;49.186;9.226;2022-09-29T13:40:15;3.28;;;2.38;;
7253;SDS011;4060;49.186;9.226;2022-09-29T13:42:51;3.45;;;2.33;;
7253;SDS011;4060;49.186;9.226;2022-09-29T13:45:40;3.78;;;2.45;;
7253;SDS011;4060;49.186;9.226;2022-09-29T13:51:21;3.63;;;2.28;;
7253;SDS011;4060;49.186;9.226;2022-09-29T13:54:23;2.70;;;2.50;;
7253;SDS011;4060;49.186;9.226;2022-09-29T13:56:59;4.57;;;2.58;;
7253;SDS011;4060;49.186;9.226;2022-09-29T13:59:34;2.78;;;2.35;;
7253;SDS011;4060;49.186;9.226;2022-09-29T14:04:58;3.20;;;2.50;;
7253;SDS011;4060;49.186;9.226;2022-09-29T14:07:36;4.07;;;2.42;;
7253;SDS011;4060;49.186;9.226;2022-09-29T14:10:17;4.28;;;2.30;;
7253;SDS011;4060;49.186;9.226;2022-09-29T14:12:53;2.50;;;2.20;;
7253;SDS011;4060;49.186;9.226;2022-09-29T14:15:28;3.08;;;2.30;;
7253;SDS011;4060;49.186;9.226;2022-09-29T14:18:11;3.25;;;2.22;;
7253;SDS011;4060;49.186;9.226;2022-09-29T14:20:57;2.60;;;2.40;;
7253;SDS011;4060;49.186;9.226;2022-09-29T14:23:48;2.88;;;2.30;;
7253;SDS011;4060;49.186;9.226;2022-09-29T14:29:16;3.67;;;2.38;;
7253;SDS011;4060;49.186;9.226;2022-09-29T14:31:49;3.92;;;2.10;;
7253;SDS011;4060;49.186;9.226;2022-09-29T14:34:22;3.17;;;2.20;;
7253;SDS011;4060;49.186;9.226;2022-09-29T14:36:56;2.45;;;2.25;;
7253;SDS011;4060;49.186;9.226;2022-09-29T14:39:27;2.75;;;2.30;;
7253;SDS011;4060;49.186;9.226;2022-09-29T14:41:58;5.88;;;2.72;;
7253;SDS011;4060;49.186;9.226;2022-09-29T14:44:29;2.55;;;2.35;;
7253;SDS011;4060;49.186;9.226;2022-09-29T14:47:20;3.92;;;2.20;;
7253;SDS011;4060;49.186;9.226;2022-09-29T14:50:28;3.38;;;2.10;;
7253;SDS011;4060;49.186;9.226;2022-09-29T14:53:29;4.38;;;2.25;;
7253;SDS011;4060;49.186;9.226;2022-09-29T14:56:19;3.60;;;2.25;;
7253;SDS011;4060;49.186;9.226;2022-09-29T14:59:12;2.58;;;2.17;;
7253;SDS011;4060;49.186;9.226;2022-09-29T15:01:57;2.15;;;2.00;;
7253;SDS011;4060;49.186;9.226;2022-09-29T15:04:48;3.83;;;2.15;;
7253;SDS011;4060;49.186;9.226;2022-09-29T15:07:21;2.38;;;2.15;;
7253;SDS011;4060;49.186;9.226;2022-09-29T15:09:52;2.92;;;2.10;;
7253;SDS011;4060;49.186;9.226;2022-09-29T15:12:24;2.67;;;2.10;;
7253;SDS011;4060;49.186;9.226;2022-09-29T15:14:57;2.17;;;1.98;;
7253;SDS011;4060;49.186;9.226;2022-09-29T15:17:33;2.03;;;1.67;;
7253;SDS011;4060;49.186;9.226;2022-09-29T15:20:17;3.28;;;2.20;;
7253;SDS011;4060;49.186;9.226;2022-09-29T15:23:01;3.20;;;2.30;;
7253;SDS011;4060;49.186;9.226;2022-09-29T15:25:41;3.03;;;2.13;;
7253;SDS011;4060;49.186;9.226;2022-09-29T15:28:13;2.00;;;1.90;;
7253;SDS011;4060;49.186;9.226;2022-09-29T15:30:47;2.78;;;2.00;;
7253;SDS011;4060;49.186;9.226;2022-09-29T15:33:20;3.33;;;2.20;;
7253;SDS011;4060;49.186;9.226;2022-09-29T15:35:55;3.03;;;1.90;;
7253;SDS011;4060;49.186;9.226;2022-09-29T15:38:31;3.63;;;1.80;;
7253;SDS011;4060;49.186;9.226;2022-09-29T15:41:04;2.60;;;1.83;;
7253;SDS011;4060;49.186;9.226;2022-09-29T15:43:51;2.20;;;2.00;;
7253;SDS011;4060;49.186;9.226;2022-09-29T15:46:24;3.00;;;1.80;;
7253;SDS011;4060;49.186;9.226;2022-09-29T15:49:16;2.17;;;1.98;;
7253;SDS011;4060;49.186;9.226;2022-09-29T15:51:54;3.50;;;2.03;;
7253;SDS011;4060;49.186;9.226;2022-09-29T15:54:29;1.98;;;1.80;;
7253;SDS011;4060;49.186;9.226;2022-09-29T15:57:01;2.40;;;2.00;;
7253;SDS011;4060;49.186;9.226;2022-09-29T15:59:48;3.55;;;2.10;;
7253;SDS011;4060;49.186;9.226;2022-09-29T16:02:24;2.83;;;2.20;;
7253;SDS011;4060;49.186;9.226;2022-09-29T16:04:58;2.30;;;1.63;;
7253;SDS011;4060;49.186;9.226;2022-09-29T16:07:30;2.15;;;1.95;;
7253;SDS011;4060;49.186;9.226;2022-09-29T16:10:06;2.00;;;1.83;;
7253;SDS011;4060;49.186;9.226;2022-09-29T16:12:45;2.03;;;1.75;;
7253;SDS011;4060;49.186;9.226;2022-09-29T16:15:18;2.28;;;2.05;;
7253;SDS011;4060;49.186;9.226;2022-09-29T16:17:52;4.05;;;2.00;;
7253;SDS011;4060;49.186;9.226;2022-09-29T16:20:24;2.90;;;2.13;;
7253;SDS011;4060;49.186;9.226;2022-09-29T16:22:56;2.97;;;2.00;;
7253;SDS011;4060;49.186;9.226;2022-09-29T16:25:37;3.38;;;2.17;;
7253;SDS011;4060;49.186;9.226;2022-09-29T16:28:08;2.28;;;2.08;;
7253;SDS011;4060;49.186;9.226;2022-09-29T16:31:00;2.17;;;1.98;;